createdAt,value
2022-10-07T00:00:36.561Z,87.87
2022-10-07T00:02:40.901Z,88.25
2022-10-07T00:04:46.949Z,88.16
2022-10-07T00:06:51.031Z,88.26
2022-10-07T00:08:55.614Z,88.42
2022-10-07T00:10:59.464Z,88.08
2022-10-07T00:13:03.423Z,88.07
2022-10-07T00:15:09.710Z,87.94
2022-10-07T00:17:15.159Z,88.37
2022-10-07T00:19:19.319Z,87.88
2022-10-07T00:21:23.365Z,87.88
2022-10-07T00:23:27.589Z,88.17
2022-10-07T00:25:31.928Z,87.92
2022-10-07T00:27:35.784Z,88.28
2022-10-07T00:29:39.841Z,88.16
2022-10-07T00:31:45.447Z,88.31
2022-10-07T00:33:51.459Z,88.48
2022-10-07T00:35:55.249Z,89.08
2022-10-07T00:37:59.626Z,89.09
2022-10-07T00:40:03.660Z,88.43
2022-10-07T00:42:07.223Z,88.86
2022-10-07T00:44:42.561Z,88.37
2022-10-07T00:46:46.001Z,88.70
2022-10-07T00:48:51.541Z,88.85
2022-10-07T00:50:57.668Z,88.92
2022-10-07T00:53:04.059Z,88.52
2022-10-07T00:55:12.362Z,88.10
2022-10-07T00:57:15.837Z,87.95
2022-10-07T00:59:21.222Z,88.33
2022-10-07T01:01:25.260Z,88.34
2022-10-07T01:03:29.145Z,88.13
2022-10-07T01:05:34.143Z,88.04
2022-10-07T01:07:38.424Z,88.43
2022-10-07T01:09:42.524Z,88.11
2022-10-07T01:11:57.300Z,88.54
2022-10-07T01:14:08.086Z,88.99
2022-10-07T01:16:18.254Z,88.63
2022-10-07T01:18:26.918Z,88.60
2022-10-07T01:20:36.218Z,88.74
2022-10-07T01:22:48.585Z,88.32
2022-10-07T01:25:12.683Z,88.94
2022-10-07T01:27:20.027Z,89.05
2022-10-07T01:29:27.158Z,89.05
2022-10-07T01:31:37.957Z,88.93
2022-10-07T01:33:43.462Z,89.26
2022-10-07T01:35:50.335Z,88.57
2022-10-07T01:37:57.765Z,89.30
2022-10-07T01:40:06.462Z,88.85
2022-10-07T01:42:10.036Z,89.23
2022-10-07T01:44:15.811Z,89.68
2022-10-07T01:46:23.335Z,89.68
2022-10-07T01:48:27.277Z,89.78
2022-10-07T01:50:33.806Z,90.25
2022-10-07T01:52:52.703Z,90.61
2022-10-07T01:55:29.062Z,90.51
2022-10-07T01:57:42.572Z,90.62
2022-10-07T02:00:08.093Z,91.14
2022-10-07T02:02:35.102Z,91.33
2022-10-07T02:04:49.265Z,90.59
2022-10-07T02:07:01.949Z,90.66
2022-10-07T02:09:12.720Z,90.67
2022-10-07T02:11:19.508Z,90.53
2022-10-07T02:13:34.503Z,90.80
2022-10-07T02:15:44.071Z,90.55
2022-10-07T02:17:54.228Z,90.42
2022-10-07T02:19:57.971Z,90.50
2022-10-07T02:22:03.205Z,90.45
2022-10-07T02:24:11.994Z,91.02
2022-10-07T02:26:18.961Z,90.94
2022-10-07T02:28:26.277Z,91.15
2022-10-07T02:30:30.382Z,90.57
2022-10-07T02:32:37.845Z,90.84
2022-10-07T02:34:46.118Z,91.31
2022-10-07T02:36:52.775Z,91.49
2022-10-07T02:39:00.361Z,91.76
2022-10-07T02:41:12.905Z,91.28
2022-10-07T02:43:23.121Z,91.55
2022-10-07T02:45:34.064Z,91.72
2022-10-07T02:47:47.632Z,91.67
2022-10-07T02:49:54.393Z,91.88
2022-10-07T02:52:01.297Z,92.05
2022-10-07T02:54:07.197Z,91.99
2022-10-07T02:56:10.927Z,92.22
2022-10-07T02:58:16.472Z,92.23
2022-10-07T03:00:21.267Z,92.23
2022-10-07T03:02:28.711Z,92.09
2022-10-07T03:04:33.512Z,92.65
2022-10-07T03:06:37.142Z,91.58
2022-10-07T03:08:41.311Z,92.45
2022-10-07T03:10:44.734Z,91.91
2022-10-07T03:12:50.374Z,92.30
2022-10-07T03:14:53.929Z,92.19
2022-10-07T03:16:57.823Z,91.80
2022-10-07T03:19:01.778Z,92.14
2022-10-07T03:21:20.023Z,91.98
2022-10-07T03:23:25.824Z,92.27
2022-10-07T03:25:29.319Z,92.29
2022-10-07T03:27:32.644Z,92.83
2022-10-07T03:29:37.234Z,92.38
2022-10-07T03:31:43.040Z,92.32
2022-10-07T03:33:47.086Z,92.89
2022-10-07T03:35:50.681Z,92.77
2022-10-07T03:37:56.003Z,92.71
2022-10-07T03:39:59.236Z,92.71
2022-10-07T03:42:02.598Z,91.88
2022-10-07T03:44:05.922Z,92.34
2022-10-07T03:46:09.592Z,92.57
2022-10-07T03:48:14.346Z,92.27
2022-10-07T03:50:17.972Z,92.52
2022-10-07T03:52:21.401Z,92.44
2022-10-07T03:54:26.445Z,91.94
2022-10-07T03:56:29.887Z,92.00
2022-10-07T03:58:33.242Z,91.58
2022-10-07T04:00:39.008Z,92.70
2022-10-07T04:02:42.768Z,92.93
2022-10-07T04:04:46.890Z,93.37
2022-10-07T04:06:51.151Z,94.36
2022-10-07T04:08:55.490Z,94.64
2022-10-07T04:11:01.327Z,96.49
2022-10-07T04:13:05.445Z,96.81
2022-10-07T04:15:09.969Z,97.28
2022-10-07T04:17:13.394Z,97.12
2022-10-07T04:19:17.218Z,97.83
2022-10-07T04:21:20.669Z,97.78
2022-10-07T04:23:24.041Z,97.42
2022-10-07T04:25:35.153Z,96.99
2022-10-07T04:27:51.906Z,96.62
2022-10-07T04:29:56.217Z,96.56
2022-10-07T04:31:59.631Z,95.88
2022-10-07T04:34:03.041Z,96.20
2022-10-07T04:36:13.027Z,96.01
2022-10-07T04:38:28.611Z,95.82
2022-10-07T04:40:35.165Z,95.08
2022-10-07T04:42:56.158Z,95.39
2022-10-07T04:45:01.290Z,95.47
2022-10-07T04:47:07.168Z,95.03
2022-10-07T04:49:13.376Z,94.78
2022-10-07T04:51:17.583Z,95.12
2022-10-07T04:53:23.591Z,94.89
2022-10-07T04:55:28.345Z,94.16
2022-10-07T04:57:31.772Z,93.71
2022-10-07T04:59:42.490Z,93.73
2022-10-07T05:01:50.254Z,93.89
2022-10-07T05:03:54.281Z,93.90
2022-10-07T05:06:05.523Z,93.11
2022-10-07T05:08:10.032Z,92.97
2022-10-07T05:10:14.317Z,92.84
2022-10-07T05:12:17.964Z,92.82
2022-10-07T05:14:22.041Z,92.54
2022-10-07T05:16:27.055Z,92.37
2022-10-07T05:18:33.503Z,91.69
2022-10-07T05:20:40.858Z,92.17
2022-10-07T05:22:44.159Z,91.82
2022-10-07T05:24:47.743Z,91.98
2022-10-07T05:26:52.414Z,91.75
2022-10-07T05:28:55.699Z,91.63
2022-10-07T05:31:13.332Z,91.40
2022-10-07T05:33:18.511Z,91.12
2022-10-07T05:35:23.842Z,91.64
2022-10-07T05:37:27.160Z,92.47
2022-10-07T05:39:30.800Z,92.98
2022-10-07T05:41:45.554Z,93.99
2022-10-07T05:43:52.412Z,94.75
2022-10-07T05:46:02.663Z,95.75
2022-10-07T05:48:07.325Z,96.36
2022-10-07T05:50:11.230Z,96.79
2022-10-07T05:52:16.708Z,96.84
2022-10-07T05:54:21.769Z,97.82
2022-10-07T05:56:25.807Z,97.72
2022-10-07T05:58:31.499Z,98.03
2022-10-07T06:00:41.844Z,98.22
2022-10-07T06:02:45.678Z,97.98
2022-10-07T06:04:49.437Z,98.37
2022-10-07T06:06:54.015Z,97.91
2022-10-07T06:09:19.941Z,98.53
2022-10-07T06:11:41.913Z,98.32
2022-10-07T06:13:48.480Z,98.15
2022-10-07T06:15:52.240Z,98.38
2022-10-07T06:17:55.618Z,98.75
2022-10-07T06:19:58.970Z,98.34
2022-10-07T06:22:02.963Z,98.47
2022-10-07T06:24:08.517Z,98.84
2022-10-07T06:26:13.685Z,98.86
2022-10-07T06:28:17.564Z,98.66
2022-10-07T06:30:21.118Z,98.56
2022-10-07T06:32:25.232Z,98.43
2022-10-07T06:34:28.599Z,99.34
2022-10-07T06:36:32.665Z,100.00
2022-10-07T06:38:36.572Z,100.00
2022-10-07T06:40:42.726Z,100.00
2022-10-07T06:42:46.119Z,100.00
2022-10-07T06:44:55.349Z,100.00
2022-10-07T06:47:00.284Z,100.00
2022-10-07T06:49:04.231Z,100.00
2022-10-07T06:51:07.722Z,100.00
2022-10-07T06:53:11.117Z,100.00
2022-10-07T06:55:15.661Z,100.00
2022-10-07T06:57:44.430Z,99.81
2022-10-07T06:59:45.617Z,99.19
2022-10-07T07:01:51.913Z,99.05
2022-10-07T07:03:56.200Z,99.02
2022-10-07T07:06:00.297Z,99.04
2022-10-07T07:08:08.681Z,98.44
2022-10-07T07:10:12.615Z,98.35
2022-10-07T07:12:20.592Z,98.55
2022-10-07T07:14:25.882Z,98.09
2022-10-07T07:16:42.717Z,98.01
2022-10-07T07:18:46.479Z,98.27
2022-10-07T07:20:49.831Z,98.33
2022-10-07T07:22:53.609Z,99.00
2022-10-07T07:24:57.423Z,97.98
2022-10-07T07:27:01.083Z,98.02
2022-10-07T07:29:08.920Z,98.14
2022-10-07T07:31:18.183Z,98.71
2022-10-07T07:33:21.708Z,98.11
2022-10-07T07:35:26.631Z,97.23
2022-10-07T07:37:30.338Z,97.49
2022-10-07T07:39:34.852Z,96.92
2022-10-07T07:41:47.962Z,97.15
2022-10-07T07:43:55.380Z,97.22
2022-10-07T07:46:01.100Z,97.28
2022-10-07T07:48:10.660Z,97.42
2022-10-07T07:50:14.633Z,97.71
2022-10-07T07:52:18.143Z,96.68
2022-10-07T07:54:25.651Z,97.41
2022-10-07T07:56:31.951Z,97.19
2022-10-07T07:58:35.697Z,97.54
2022-10-07T08:00:39.047Z,97.35
2022-10-07T08:02:44.686Z,97.46
2022-10-07T08:04:54.047Z,97.14
2022-10-07T08:06:58.983Z,97.17
2022-10-07T08:09:02.630Z,97.53
2022-10-07T08:11:09.581Z,97.51
2022-10-07T08:13:13.759Z,96.71
2022-10-07T08:15:17.745Z,97.17
2022-10-07T08:17:22.271Z,97.27
2022-10-07T08:19:29.725Z,97.23
2022-10-07T08:21:34.982Z,97.21
2022-10-07T08:23:41.142Z,96.90
2022-10-07T08:25:45.390Z,96.25
2022-10-07T08:27:49.603Z,96.02
2022-10-07T08:29:53.782Z,95.83
2022-10-07T08:31:57.829Z,95.16
2022-10-07T08:34:03.067Z,95.49
2022-10-07T08:36:12.512Z,95.30
2022-10-07T08:38:16.293Z,93.70
2022-10-07T08:40:19.939Z,94.01
2022-10-07T08:42:29.793Z,94.42
2022-10-07T08:44:36.246Z,94.36
2022-10-07T08:46:41.634Z,94.84
2022-10-07T08:48:51.263Z,94.84
2022-10-07T08:51:00.387Z,94.74
2022-10-07T08:53:09.012Z,95.19
2022-10-07T08:55:20.357Z,94.65
2022-10-07T08:57:39.909Z,94.64
2022-10-07T08:59:51.937Z,92.88
2022-10-07T09:02:12.065Z,91.97
2022-10-07T09:04:29.255Z,91.24
2022-10-07T09:06:37.658Z,92.35
2022-10-07T09:08:47.271Z,91.48
2022-10-07T09:10:53.657Z,91.46
2022-10-07T09:13:00.987Z,90.76
2022-10-07T09:15:07.564Z,90.44
2022-10-07T09:17:18.584Z,89.39
2022-10-07T09:19:31.091Z,88.31
2022-10-07T09:21:41.677Z,87.77
2022-10-07T09:23:48.077Z,85.88
2022-10-07T09:25:52.778Z,84.59
2022-10-07T09:27:56.979Z,83.90
2022-10-07T09:30:00.971Z,83.07
2022-10-07T09:32:04.635Z,83.03
2022-10-07T09:34:19.959Z,81.58
2022-10-07T09:36:23.627Z,81.31
2022-10-07T09:38:36.215Z,80.99
2022-10-07T09:40:58.100Z,79.48
2022-10-07T09:43:02.508Z,78.59
2022-10-07T09:45:20.251Z,78.04
2022-10-07T09:47:25.936Z,77.38
2022-10-07T09:49:36.531Z,77.71
2022-10-07T09:51:40.251Z,77.49
2022-10-07T09:53:59.884Z,77.19
2022-10-07T09:56:05.028Z,77.43
2022-10-07T09:58:19.897Z,76.74
2022-10-07T10:00:27.186Z,76.85
2022-10-07T10:02:30.915Z,75.50
2022-10-07T10:04:36.940Z,75.52
2022-10-07T10:06:47.954Z,76.09
2022-10-07T10:08:57.666Z,75.65
2022-10-07T10:11:03.282Z,74.32
2022-10-07T10:13:08.604Z,73.09
2022-10-07T10:15:27.302Z,73.73
2022-10-07T10:17:34.864Z,73.06
2022-10-07T10:19:38.622Z,72.61
2022-10-07T10:21:43.287Z,72.12
2022-10-07T10:23:48.232Z,70.60
2022-10-07T10:26:16.492Z,69.87
2022-10-07T10:28:36.700Z,70.30
2022-10-07T10:30:52.789Z,70.21
2022-10-07T10:33:15.014Z,69.93
2022-10-07T10:35:26.164Z,68.41
2022-10-07T10:37:42.947Z,68.69
2022-10-07T10:39:57.868Z,68.01
2022-10-07T10:42:06.735Z,68.38
2022-10-07T10:44:27.245Z,67.47
2022-10-07T10:46:47.392Z,68.01
2022-10-07T10:49:00.980Z,68.51
2022-10-07T10:51:16.470Z,68.33
2022-10-07T10:53:34.730Z,67.08
2022-10-07T10:55:59.874Z,67.62
2022-10-07T10:58:16.668Z,67.53
2022-10-07T11:00:23.498Z,66.52
2022-10-07T11:02:57.133Z,67.00
2022-10-07T11:05:05.582Z,65.88
2022-10-07T11:07:18.733Z,65.64
2022-10-07T11:09:31.583Z,64.73
2022-10-07T11:11:36.894Z,64.81
2022-10-07T11:13:47.089Z,65.61
2022-10-07T11:15:57.240Z,65.15
2022-10-07T11:18:05.867Z,64.97
2022-10-07T11:20:20.287Z,64.42
2022-10-07T11:22:33.191Z,64.41
2022-10-07T11:24:42.477Z,63.91
2022-10-07T11:26:52.340Z,63.38
2022-10-07T11:28:58.823Z,64.14
2022-10-07T11:31:10.390Z,64.04
2022-10-07T11:33:23.130Z,64.09
2022-10-07T11:35:32.254Z,63.21
2022-10-07T11:37:43.116Z,63.00
2022-10-07T11:39:47.171Z,62.78
2022-10-07T11:41:57.635Z,63.38
2022-10-07T11:44:08.655Z,63.65
2022-10-07T11:46:18.627Z,63.01
2022-10-07T11:48:28.232Z,63.56
2022-10-07T11:50:37.429Z,63.78
2022-10-07T11:52:45.542Z,64.82
2022-10-07T11:54:59.286Z,65.33
2022-10-07T11:57:03.716Z,65.51
2022-10-07T11:59:08.948Z,65.62
2022-10-07T12:01:42.778Z,64.33
2022-10-07T12:03:48.799Z,63.03
2022-10-07T12:06:10.539Z,62.54
2022-10-07T12:08:36.963Z,62.12
2022-10-07T12:10:40.888Z,62.29
2022-10-07T12:12:53.236Z,61.97
2022-10-07T12:15:04.025Z,62.13
2022-10-07T12:17:28.421Z,62.42
2022-10-07T12:19:33.678Z,63.07
2022-10-07T12:22:10.712Z,63.95
2022-10-07T12:24:17.075Z,64.34
2022-10-07T12:26:54.373Z,64.89
2022-10-07T12:28:58.985Z,65.77
2022-10-07T12:31:04.215Z,66.66
2022-10-07T12:33:29.764Z,66.94
2022-10-07T12:35:54.232Z,67.37
2022-10-07T12:38:06.448Z,67.18
2022-10-07T12:40:19.025Z,67.25
2022-10-07T12:42:25.458Z,66.90
2022-10-07T12:44:34.068Z,67.38
2022-10-07T12:46:47.976Z,67.66
2022-10-07T12:48:59.552Z,67.24
2022-10-07T12:51:06.067Z,67.29
2022-10-07T12:53:13.182Z,67.04
2022-10-07T12:55:19.644Z,66.54
2022-10-07T12:57:26.432Z,67.28
2022-10-07T12:59:48.736Z,67.65
2022-10-07T13:02:27.626Z,67.40
2022-10-07T13:04:59.439Z,66.78
2022-10-07T13:07:50.346Z,67.12
2022-10-07T13:10:30.829Z,66.83
2022-10-07T13:12:44.794Z,65.84
2022-10-07T13:14:59.982Z,65.63
2022-10-07T13:17:21.253Z,65.45
2022-10-07T13:19:31.919Z,65.97
2022-10-07T13:21:40.945Z,66.14
2022-10-07T13:23:52.745Z,65.85
2022-10-07T13:25:59.572Z,65.96
2022-10-07T13:28:03.264Z,66.42
2022-10-07T13:30:08.596Z,65.92
2022-10-07T13:32:16.335Z,66.66
2022-10-07T13:34:22.288Z,66.81
2022-10-07T13:36:28.267Z,66.99
2022-10-07T13:38:33.528Z,66.84
2022-10-07T13:40:37.735Z,66.80
2022-10-07T13:42:41.395Z,67.44
2022-10-07T13:44:46.115Z,70.07
2022-10-07T13:46:56.019Z,71.60
2022-10-07T13:49:01.466Z,73.35
2022-10-07T13:51:06.945Z,74.30
2022-10-07T13:53:21.386Z,75.21
2022-10-07T13:55:32.044Z,76.50
2022-10-07T13:57:41.798Z,77.05
2022-10-07T13:59:45.913Z,78.19
2022-10-07T14:01:52.384Z,78.49
2022-10-07T14:04:13.014Z,78.16
2022-10-07T14:06:38.857Z,79.18
2022-10-07T14:08:52.151Z,79.62
2022-10-07T14:11:01.114Z,79.99
2022-10-07T14:13:08.474Z,80.77
2022-10-07T14:15:15.882Z,80.98
2022-10-07T14:17:34.447Z,80.82
2022-10-07T14:19:39.834Z,80.54
2022-10-07T14:21:43.767Z,80.05
2022-10-07T14:23:48.340Z,79.73
2022-10-07T14:25:55.452Z,78.91
2022-10-07T14:28:21.669Z,78.07
2022-10-07T14:30:55.531Z,78.31
2022-10-07T14:33:30.229Z,78.33
2022-10-07T14:35:34.264Z,78.36
2022-10-07T14:37:38.024Z,78.21
2022-10-07T14:39:43.736Z,77.46
2022-10-07T14:41:48.293Z,77.19
2022-10-07T14:43:53.711Z,75.62
2022-10-07T14:45:57.586Z,74.43
2022-10-07T14:48:01.295Z,72.78
2022-10-07T14:50:05.464Z,71.66
2022-10-07T14:52:15.120Z,72.18
2022-10-07T14:54:18.760Z,73.10
2022-10-07T14:56:27.411Z,72.99
2022-10-07T14:58:31.233Z,71.34
2022-10-07T15:00:39.647Z,71.43
2022-10-07T15:02:44.019Z,71.02
2022-10-07T15:04:48.738Z,70.36
2022-10-07T15:06:52.512Z,70.44
2022-10-07T15:08:57.012Z,70.57
2022-10-07T15:11:00.839Z,70.89
2022-10-07T15:13:09.804Z,70.48
2022-10-07T15:15:16.953Z,70.21
2022-10-07T15:17:23.266Z,69.84
2022-10-07T15:19:27.420Z,69.82
2022-10-07T15:21:31.632Z,69.62
2022-10-07T15:23:35.227Z,69.91
2022-10-07T15:25:42.833Z,69.95
2022-10-07T15:27:46.548Z,69.98
2022-10-07T15:29:53.851Z,70.41
2022-10-07T15:31:57.608Z,70.72
2022-10-07T15:34:02.764Z,69.22
2022-10-07T15:36:07.112Z,68.93
2022-10-07T15:38:10.920Z,69.16
2022-10-07T15:40:14.974Z,69.17
2022-10-07T15:42:19.993Z,69.07
2022-10-07T15:44:24.148Z,69.46
2022-10-07T15:46:28.339Z,68.93
2022-10-07T15:48:32.030Z,69.65
2022-10-07T15:50:37.333Z,69.26
2022-10-07T15:52:40.857Z,69.23
2022-10-07T15:54:48.276Z,69.82
2022-10-07T15:56:52.010Z,70.59
2022-10-07T15:58:55.982Z,70.72
2022-10-07T16:01:02.128Z,70.34
2022-10-07T16:03:05.968Z,70.48
2022-10-07T16:07:35.672Z,70.51
2022-10-07T16:09:40.615Z,70.19
2022-10-07T16:11:44.737Z,69.90
2022-10-07T16:13:50.180Z,69.04
2022-10-07T16:16:03.166Z,69.02
2022-10-07T16:18:07.780Z,69.61
2022-10-07T16:20:14.909Z,70.30
2022-10-07T16:22:19.599Z,70.50
2022-10-07T16:24:25.376Z,70.61
2022-10-07T16:26:30.610Z,70.95
2022-10-07T16:28:51.412Z,71.11
2022-10-07T16:30:55.305Z,71.65
2022-10-07T16:32:59.064Z,71.51
2022-10-07T16:35:13.618Z,71.67
2022-10-07T16:37:18.136Z,70.86
2022-10-07T16:39:22.373Z,70.72
2022-10-07T16:41:27.598Z,71.69
2022-10-07T16:43:31.453Z,70.50
2022-10-07T16:45:35.152Z,70.82
2022-10-07T16:47:39.069Z,70.79
2022-10-07T16:49:43.515Z,70.74
2022-10-07T16:51:48.509Z,70.85
2022-10-07T16:53:56.475Z,71.09
2022-10-07T16:56:05.131Z,71.77
2022-10-07T16:58:10.336Z,71.81
2022-10-07T17:00:15.327Z,72.29
2022-10-07T17:02:20.260Z,72.93
2022-10-07T17:04:25.078Z,72.76
2022-10-07T17:06:30.928Z,72.86
2022-10-07T17:08:40.415Z,72.71
2022-10-07T17:10:45.878Z,72.93
2022-10-07T17:12:49.471Z,73.70
2022-10-07T17:14:56.600Z,73.21
2022-10-07T17:17:01.975Z,73.61
2022-10-07T17:19:06.412Z,73.05
2022-10-07T17:21:10.041Z,73.38
2022-10-07T17:23:14.767Z,73.60
2022-10-07T17:25:25.355Z,73.56
2022-10-07T17:27:29.095Z,74.18
2022-10-07T17:29:34.404Z,73.81
2022-10-07T17:31:42.657Z,74.35
2022-10-07T17:33:46.760Z,74.57
2022-10-07T17:35:50.388Z,74.76
2022-10-07T17:37:54.500Z,74.65
2022-10-07T17:39:57.849Z,74.86
2022-10-07T17:42:01.213Z,75.65
2022-10-07T17:44:08.317Z,75.81
2022-10-07T17:46:14.068Z,76.00
2022-10-07T17:48:18.965Z,76.12
2022-10-07T17:50:22.632Z,76.45
2022-10-07T17:52:27.616Z,76.64
2022-10-07T17:54:31.561Z,76.57
2022-10-07T17:56:35.754Z,76.98
2022-10-07T17:58:39.987Z,77.20
2022-10-07T18:00:43.912Z,77.27
2022-10-07T18:02:50.943Z,77.62
2022-10-07T18:04:56.162Z,77.38
2022-10-07T18:06:59.468Z,77.67
2022-10-07T18:09:05.133Z,77.82
2022-10-07T18:11:08.869Z,77.91
2022-10-07T18:13:29.917Z,78.24
2022-10-07T18:15:32.132Z,78.21
2022-10-07T18:17:36.922Z,78.35
2022-10-07T18:19:41.414Z,78.25
2022-10-07T18:21:48.849Z,78.29
2022-10-07T18:23:54.508Z,78.56
2022-10-07T18:26:02.590Z,78.50
2022-10-07T18:28:07.563Z,78.46
2022-10-07T18:30:11.960Z,78.73
2022-10-07T18:32:15.440Z,79.13
2022-10-07T18:34:18.936Z,79.46
2022-10-07T18:36:22.225Z,79.72
2022-10-07T18:38:30.641Z,79.49
2022-10-07T18:40:34.234Z,79.96
2022-10-07T18:42:39.067Z,79.57
2022-10-07T18:44:42.855Z,79.67
2022-10-07T18:46:46.560Z,79.39
2022-10-07T18:48:50.150Z,79.46
2022-10-07T18:50:53.641Z,79.67
2022-10-07T18:52:57.228Z,79.55
2022-10-07T18:55:05.371Z,79.54
2022-10-07T18:57:08.941Z,79.84
2022-10-07T18:59:13.349Z,80.14
2022-10-07T19:01:18.604Z,79.99
2022-10-07T19:03:22.187Z,80.15
2022-10-07T19:05:25.552Z,79.94
2022-10-07T19:07:31.210Z,80.44
2022-10-07T19:09:34.761Z,80.23
2022-10-07T19:11:39.555Z,80.34
2022-10-07T19:13:48.693Z,80.05
2022-10-07T19:15:52.821Z,80.11
2022-10-07T19:17:56.603Z,80.50
2022-10-07T19:20:01.055Z,80.09
2022-10-07T19:22:04.841Z,80.08
2022-10-07T19:24:09.033Z,79.66
2022-10-07T19:26:12.714Z,80.05
2022-10-07T19:28:18.549Z,80.00
2022-10-07T19:30:22.305Z,80.13
2022-10-07T19:32:26.742Z,80.29
2022-10-07T19:34:30.927Z,79.83
2022-10-07T19:36:38.158Z,80.13
2022-10-07T19:38:45.291Z,79.93
2022-10-07T19:40:49.939Z,79.89
2022-10-07T19:42:54.063Z,80.09
2022-10-07T19:45:00.709Z,80.16
2022-10-07T19:47:05.305Z,79.85
2022-10-07T19:49:11.052Z,79.85
2022-10-07T19:51:17.825Z,79.43
2022-10-07T19:53:22.239Z,79.17
2022-10-07T19:55:29.058Z,79.45
2022-10-07T19:57:33.475Z,78.82
2022-10-07T19:59:37.900Z,79.03
2022-10-07T20:01:47.785Z,79.05
2022-10-07T20:03:58.903Z,79.26
2022-10-07T20:06:05.925Z,79.12
2022-10-07T20:08:11.036Z,79.48
2022-10-07T20:10:15.754Z,79.01
2022-10-07T20:12:19.835Z,79.35
2022-10-07T20:14:23.841Z,79.19
2022-10-07T20:16:29.809Z,79.24
2022-10-07T20:18:36.045Z,79.71
2022-10-07T20:20:40.385Z,79.55
2022-10-07T20:22:49.226Z,79.91
2022-10-07T20:24:53.999Z,79.67
2022-10-07T20:26:58.002Z,80.17
2022-10-07T20:29:04.241Z,80.20
2022-10-07T20:31:10.245Z,80.00
2022-10-07T20:33:14.327Z,80.59
2022-10-07T20:35:19.678Z,80.60
2022-10-07T20:37:24.468Z,80.78
2022-10-07T20:39:45.556Z,80.86
2022-10-07T20:42:06.714Z,80.81
2022-10-07T20:44:11.809Z,80.65
2022-10-07T20:46:16.502Z,81.18
2022-10-07T20:48:20.708Z,81.23
2022-10-07T20:50:26.443Z,80.90
2022-10-07T20:52:33.795Z,81.37
2022-10-07T20:54:37.960Z,81.70
2022-10-07T20:56:42.189Z,81.44
2022-10-07T20:58:46.757Z,81.33
2022-10-07T21:00:50.700Z,81.66
2022-10-07T21:02:55.511Z,81.51
2022-10-07T21:05:00.733Z,81.79
2022-10-07T21:07:06.498Z,82.03
2022-10-07T21:09:12.306Z,82.04
2022-10-07T21:11:16.681Z,82.17
2022-10-07T21:13:21.560Z,82.02
2022-10-07T21:15:26.745Z,82.27
2022-10-07T21:17:30.920Z,82.37
2022-10-07T21:19:36.421Z,82.91
2022-10-07T21:21:40.587Z,82.89
2022-10-07T21:23:46.337Z,83.04
2022-10-07T21:25:52.103Z,82.98
2022-10-07T21:27:55.793Z,83.43
2022-10-07T21:30:00.291Z,83.16
2022-10-07T21:32:04.563Z,83.29
2022-10-07T21:34:10.346Z,83.46
2022-10-07T21:36:16.756Z,83.42
2022-10-07T21:38:20.379Z,83.26
2022-10-07T21:40:25.782Z,83.61
2022-10-07T21:42:30.377Z,83.18
2022-10-07T21:44:35.846Z,83.58
2022-10-07T21:46:42.431Z,83.34
2022-10-07T21:48:47.043Z,83.72
2022-10-07T21:50:55.958Z,84.21
2022-10-07T21:52:59.908Z,84.13
2022-10-07T21:55:03.461Z,83.95
2022-10-07T21:57:08.662Z,83.86
2022-10-07T21:59:12.433Z,84.23
2022-10-07T22:01:19.016Z,84.28
2022-10-07T22:03:22.778Z,84.10
2022-10-07T22:05:27.417Z,84.51
2022-10-07T22:07:48.501Z,84.75
2022-10-07T22:09:52.246Z,84.27
2022-10-07T22:11:55.863Z,84.76
2022-10-07T22:14:00.939Z,84.51
2022-10-07T22:16:06.496Z,84.61
2022-10-07T22:18:11.313Z,84.91
2022-10-07T22:20:15.138Z,84.85
2022-10-07T22:22:19.977Z,84.86
2022-10-07T22:24:24.342Z,84.89
2022-10-07T22:26:29.983Z,85.18
2022-10-07T22:28:36.096Z,85.48
2022-10-07T22:30:43.090Z,85.19
2022-10-07T22:32:47.337Z,85.38
2022-10-07T22:35:09.050Z,85.55
2022-10-07T22:37:14.745Z,85.34
2022-10-07T22:39:18.316Z,85.65
2022-10-07T22:41:22.511Z,85.33
2022-10-07T22:43:26.461Z,85.28
2022-10-07T22:45:29.965Z,85.55
2022-10-07T22:47:35.692Z,85.32
2022-10-07T22:49:39.481Z,85.82
2022-10-07T22:51:43.583Z,85.40
2022-10-07T22:53:53.217Z,85.32
2022-10-07T22:55:57.182Z,85.83
2022-10-07T22:58:02.288Z,85.18
2022-10-07T23:00:07.299Z,85.56
2022-10-07T23:02:10.923Z,85.80
2022-10-07T23:04:15.946Z,85.88
2022-10-07T23:06:20.801Z,85.42
2022-10-07T23:08:24.484Z,85.58
2022-10-07T23:10:28.496Z,85.20
2022-10-07T23:12:34.158Z,85.03
2022-10-07T23:14:41.053Z,85.50
2022-10-07T23:16:45.081Z,85.18
2022-10-07T23:18:50.739Z,85.12
2022-10-07T23:21:03.480Z,85.48
2022-10-07T23:23:07.306Z,85.72
2022-10-07T23:25:11.183Z,85.80
2022-10-07T23:27:15.199Z,85.75
2022-10-07T23:29:19.770Z,85.97
2022-10-07T23:31:27.296Z,85.95
2022-10-07T23:33:32.494Z,85.95
2022-10-07T23:35:35.883Z,86.22
2022-10-07T23:37:41.138Z,86.16
2022-10-07T23:39:44.733Z,86.30
2022-10-07T23:41:49.561Z,86.62
2022-10-07T23:43:53.666Z,86.93
2022-10-07T23:45:57.722Z,86.31
2022-10-07T23:48:01.938Z,86.24
2022-10-07T23:50:06.559Z,86.38
2022-10-07T23:52:10.252Z,86.73
2022-10-07T23:54:15.664Z,87.15
2022-10-07T23:56:19.802Z,86.69
2022-10-07T23:58:25.640Z,87.43
